Time;durP1;ratioP1;P1;durP2;ratioP2;P2;SDS_P1;SDS_P2;PMS_P1;PMS_P2;Temp;Humidity;BMP_temperature;BMP_pressure;BME280_temperature;BME280_humidity;BME280_pressure;Samples;Min_cycle;Max_cycle;Signal;HPM_P1;HPM_P2
2021/09/19 00:00:16;;;;;;;4.53;4.20;;;;;;;;;;2080555;28;20175;-58
2021/09/19 00:01:16;;;;;;;3.70;3.50;;;;;;;;;;2089132;28;20178;-53
2021/09/19 00:02:16;;;;;;;5.00;4.50;;;;;;;;;;2080979;28;20186;-58
2021/09/19 00:03:17;;;;;;;3.80;3.60;;;;;;;;;;2073893;28;20169;-60
2021/09/19 00:04:17;;;;;;;3.38;3.17;;;;;;;;;;2087648;28;20175;-56
2021/09/19 00:05:17;;;;;;;3.75;3.45;;;;;;;;;;2089126;28;20182;-57
2021/09/19 00:06:17;;;;;;;3.65;3.45;;;;;;;;;;2080776;28;20589;-58
2021/09/19 00:07:18;;;;;;;4.05;3.70;;;;;;;;;;2080520;28;20176;-55
2021/09/19 00:08:18;;;;;;;3.38;3.17;;;;;;;;;;2088849;28;20845;-56
2021/09/19 00:09:18;;;;;;;3.15;2.95;;;;;;;;;;2089757;28;20706;-53
2021/09/19 00:10:19;;;;;;;4.70;3.42;;;;;;;;;;2080912;28;20588;-55
2021/09/19 00:11:19;;;;;;;3.22;2.97;;;;;;;;;;2080814;28;20184;-56
2021/09/19 00:12:19;;;;;;;3.38;3.08;;;;;;;;;;2081156;28;20261;-55
2021/09/19 00:13:19;;;;;;;5.88;3.00;;;;;;;;;;2081015;28;20275;-57
2021/09/19 00:14:20;;;;;;;3.22;3.03;;;;;;;;;;2081068;28;20169;-57
2021/09/19 00:15:20;;;;;;;4.57;3.63;;;;;;;;;;2089738;28;20683;-54
2021/09/19 00:16:20;;;;;;;3.47;3.20;;;;;;;;;;2089742;28;20195;-55
2021/09/19 00:17:21;;;;;;;3.10;2.90;;;;;;;;;;2089579;28;20232;-56
2021/09/19 00:18:21;;;;;;;3.53;3.22;;;;;;;;;;2089129;28;20192;-56
2021/09/19 00:19:21;;;;;;;3.55;3.25;;;;;;;;;;2089825;28;20186;-56
2021/09/19 00:20:21;;;;;;;3.47;3.20;;;;;;;;;;2080735;28;20175;-53
2021/09/19 00:21:22;;;;;;;3.45;3.25;;;;;;;;;;2080736;28;20176;-57
2021/09/19 00:22:22;;;;;;;3.47;3.28;;;;;;;;;;2077466;28;20653;-59
2021/09/19 00:23:22;;;;;;;4.00;2.90;;;;;;;;;;2088868;28;20191;-56
2021/09/19 00:24:23;;;;;;;3.25;3.05;;;;;;;;;;2081931;28;20215;-60
2021/09/19 00:25:24;;;;;;;2.88;2.67;;;;;;;;;;2086997;28;20270;-56
2021/09/19 00:26:24;;;;;;;3.35;3.15;;;;;;;;;;2088743;28;20191;-58
2021/09/19 00:27:24;;;;;;;3.60;3.30;;;;;;;;;;2084490;28;20231;-57
2021/09/19 00:28:24;;;;;;;3.40;3.10;;;;;;;;;;2071478;28;20164;-56
2021/09/19 00:29:25;;;;;;;3.65;3.35;;;;;;;;;;2076877;28;20671;-56
2021/09/19 00:30:25;;;;;;;3.60;2.92;;;;;;;;;;2088641;28;20182;-55
2021/09/19 00:31:26;;;;;;;3.22;3.03;;;;;;;;;;2081984;28;20176;-56
2021/09/19 00:32:26;;;;;;;3.38;2.97;;;;;;;;;;2080875;28;20179;-53
2021/09/19 00:33:26;;;;;;;3.25;3.05;;;;;;;;;;2083885;28;20258;-54
2021/09/19 00:34:27;;;;;;;4.00;3.60;;;;;;;;;;2089421;28;20195;-58
2021/09/19 00:35:27;;;;;;;3.50;3.20;;;;;;;;;;2087290;28;20191;-58
2021/09/19 00:36:27;;;;;;;3.38;3.17;;;;;;;;;;2082149;28;20230;-54
2021/09/19 00:37:28;;;;;;;3.65;3.40;;;;;;;;;;2080661;28;20192;-56
2021/09/19 00:38:28;;;;;;;3.22;3.03;;;;;;;;;;2087990;28;20172;-57
2021/09/19 00:39:28;;;;;;;3.42;3.22;;;;;;;;;;2088650;28;20282;-54
2021/09/19 00:40:29;;;;;;;4.40;4.10;;;;;;;;;;2080534;28;20618;-55
2021/09/19 00:41:29;;;;;;;4.18;3.78;;;;;;;;;;2072185;28;20176;-57
2021/09/19 00:42:29;;;;;;;3.92;3.65;;;;;;;;;;2084595;28;20164;-55
2021/09/19 00:43:29;;;;;;;4.68;4.35;;;;;;;;;;2089449;28;20203;-56
2021/09/19 00:44:31;;;;;;;4.63;4.35;;;;;;;;;;2081424;28;20188;-57
2021/09/19 00:45:31;;;;;;;4.90;4.60;;;;;;;;;;2086755;28;20258;-58
2021/09/19 00:46:32;;;;;;;5.60;4.50;;;;;;;;;;2081525;28;20176;-56
2021/09/19 00:47:32;;;;;;;5.05;4.50;;;;;;;;;;2088152;28;20187;-57
2021/09/19 00:48:32;;;;;;;6.57;5.38;;;;;;;;;;2088053;28;20516;-56
2021/09/19 00:49:33;;;;;;;5.55;5.15;;;;;;;;;;2076807;28;20180;-55
2021/09/19 00:50:33;;;;;;;5.80;5.40;;;;;;;;;;2080030;28;20684;-54
2021/09/19 00:51:34;;;;;;;6.78;6.07;;;;;;;;;;2079804;28;20236;-55
2021/09/19 00:52:36;;;;;;;6.20;5.78;;;;;;;;;;2080122;28;20263;-58
2021/09/19 00:53:37;;;;;;;6.68;6.13;;;;;;;;;;2073259;28;20717;-56
2021/09/19 00:54:39;;;;;;;6.88;6.38;;;;;;;;;;2084950;28;20437;-57
2021/09/19 00:55:41;;;;;;;7.72;6.97;;;;;;;;;;2082407;28;20569;-52
2021/09/19 00:56:42;;;;;;;7.70;7.10;;;;;;;;;;2079624;28;20168;-53
2021/09/19 00:57:53;;;;;;;7.72;6.93;;;;;;;;;;2078888;28;20199;-54
2021/09/19 00:58:54;;;;;;;6.68;6.03;;;;;;;;;;2075336;28;20160;-56
2021/09/19 00:59:55;;;;;;;7.70;7.10;;;;;;;;;;2080379;28;20567;-56
2021/09/19 01:00:55;;;;;;;7.72;7.13;;;;;;;;;;2088414;28;20176;-56
2021/09/19 01:01:56;;;;;;;8.20;7.60;;;;;;;;;;2085527;28;20164;-52
2021/09/19 01:02:56;;;;;;;8.00;7.22;;;;;;;;;;2084859;28;20263;-53
2021/09/19 01:03:59;;;;;;;8.13;7.53;;;;;;;;;;2088396;28;20250;-55
2021/09/19 01:04:59;;;;;;;8.27;7.47;;;;;;;;;;2079585;28;20618;-54
2021/09/19 01:06:00;;;;;;;8.38;7.78;;;;;;;;;;2076906;28;20177;-53
2021/09/19 01:07:00;;;;;;;8.70;8.00;;;;;;;;;;2076177;28;20180;-55
2021/09/19 01:08:01;;;;;;;8.00;7.50;;;;;;;;;;2072035;28;20589;-54
2021/09/19 01:09:02;;;;;;;8.82;8.13;;;;;;;;;;2080112;28;20274;-57
2021/09/19 01:10:02;;;;;;;8.48;7.75;;;;;;;;;;2079978;28;20663;-51
2021/09/19 01:11:02;;;;;;;9.90;9.02;;;;;;;;;;2084732;28;20641;-52
2021/09/19 01:12:03;;;;;;;9.43;8.55;;;;;;;;;;2076962;28;20185;-59
2021/09/19 01:13:03;;;;;;;9.55;8.73;;;;;;;;;;2080740;28;20175;-56
2021/09/19 01:14:04;;;;;;;10.05;9.27;;;;;;;;;;2088954;28;20222;-56
2021/09/19 01:15:05;;;;;;;10.35;9.30;;;;;;;;;;2076539;28;20188;-57
2021/09/19 01:16:06;;;;;;;9.75;8.95;;;;;;;;;;2075170;28;20200;-55
2021/09/19 01:17:06;;;;;;;9.65;8.85;;;;;;;;;;2082062;28;20551;-51
2021/09/19 01:18:07;;;;;;;9.93;9.23;;;;;;;;;;2087882;28;20210;-52
2021/09/19 01:19:11;;;;;;;10.52;9.55;;;;;;;;;;2089188;28;20174;-57
2021/09/19 01:20:15;;;;;;;10.40;9.60;;;;;;;;;;2088214;28;20233;-56
2021/09/19 01:21:16;;;;;;;9.70;8.80;;;;;;;;;;2072370;28;20230;-56
2021/09/19 01:22:16;;;;;;;10.48;9.57;;;;;;;;;;2075389;28;20230;-56
2021/09/19 01:23:16;;;;;;;10.27;9.48;;;;;;;;;;2081207;28;20176;-55
2021/09/19 01:24:17;;;;;;;10.35;9.55;;;;;;;;;;2087633;28;20555;-52
2021/09/19 01:25:17;;;;;;;10.98;9.90;;;;;;;;;;2086752;28;20250;-53
2021/09/19 01:26:17;;;;;;;13.32;12.07;;;;;;;;;;2088001;28;20659;-56
2021/09/19 01:27:18;;;;;;;12.38;11.38;;;;;;;;;;2089156;28;20171;-53
2021/09/19 01:28:18;;;;;;;12.15;11.05;;;;;;;;;;2082067;28;20191;-57
2021/09/19 01:29:18;;;;;;;11.65;10.75;;;;;;;;;;2079027;28;20211;-55
2021/09/19 01:30:18;;;;;;;11.57;10.52;;;;;;;;;;2080338;28;20171;-56
2021/09/19 01:31:19;;;;;;;11.48;10.48;;;;;;;;;;2088315;28;20176;-56
2021/09/19 01:32:22;;;;;;;12.75;11.55;;;;;;;;;;2080175;28;20223;-53
2021/09/19 01:33:22;;;;;;;11.95;10.75;;;;;;;;;;2073032;28;20212;-54
2021/09/19 01:34:23;;;;;;;11.60;10.70;;;;;;;;;;2084213;28;20663;-58
2021/09/19 01:35:23;;;;;;;12.48;11.32;;;;;;;;;;2087677;28;20602;-52
2021/09/19 01:36:24;;;;;;;12.90;11.90;;;;;;;;;;2084091;28;20184;-56
2021/09/19 01:37:24;;;;;;;12.25;11.25;;;;;;;;;;2079111;28;20187;-55
2021/09/19 01:38:24;;;;;;;12.45;11.35;;;;;;;;;;2064754;28;20634;-53
2021/09/19 01:39:24;;;;;;;12.20;11.23;;;;;;;;;;2080127;28;20215;-56
2021/09/19 01:40:26;;;;;;;12.65;11.35;;;;;;;;;;2089012;28;20172;-57
2021/09/19 01:41:26;;;;;;;15.13;11.77;;;;;;;;;;2089159;28;20745;-56
2021/09/19 01:42:27;;;;;;;11.85;10.85;;;;;;;;;;2088769;28;20214;-58
2021/09/19 01:43:27;;;;;;;12.07;11.07;;;;;;;;;;2084822;28;20218;-55
2021/09/19 01:44:28;;;;;;;12.40;11.30;;;;;;;;;;2088616;28;20218;-55
2021/09/19 01:45:28;;;;;;;12.05;10.95;;;;;;;;;;2086496;28;20184;-54
2021/09/19 01:46:29;;;;;;;12.15;11.15;;;;;;;;;;2089079;28;20258;-55
2021/09/19 01:47:29;;;;;;;12.60;11.50;;;;;;;;;;2083749;28;20254;-55
2021/09/19 01:48:33;;;;;;;12.90;11.70;;;;;;;;;;2071544;28;20172;-57
2021/09/19 01:49:33;;;;;;;13.25;12.05;;;;;;;;;;2078300;28;20185;-59
2021/09/19 01:50:33;;;;;;;13.20;12.00;;;;;;;;;;2097558;28;20214;-59
2021/09/19 01:51:34;;;;;;;12.93;11.93;;;;;;;;;;2096523;28;20167;-58
2021/09/19 01:52:34;;;;;;;13.35;12.20;;;;;;;;;;2089966;28;20215;-54
2021/09/19 01:53:35;;;;;;;13.80;12.60;;;;;;;;;;2097568;28;20215;-53
2021/09/19 01:54:35;;;;;;;14.18;12.88;;;;;;;;;;2097815;28;20191;-55
2021/09/19 01:55:36;;;;;;;12.63;11.63;;;;;;;;;;2098365;28;20160;-58
2021/09/19 01:56:36;;;;;;;13.38;12.38;;;;;;;;;;2097823;28;20227;-57
2021/09/19 01:57:36;;;;;;;13.88;12.68;;;;;;;;;;2098468;28;20239;-58
2021/09/19 01:58:44;;;;;;;13.75;12.65;;;;;;;;;;2087861;28;20222;-54
2021/09/19 01:59:44;;;;;;;13.27;12.18;;;;;;;;;;2089741;28;20174;-56
2021/09/19 02:00:45;;;;;;;14.02;12.85;;;;;;;;;;2097540;28;20170;-55
2021/09/19 02:01:45;;;;;;;13.27;11.98;;;;;;;;;;2087884;28;20184;-56
2021/09/19 02:02:45;;;;;;;15.43;13.93;;;;;;;;;;2082034;28;20216;-56
2021/09/19 02:03:46;;;;;;;14.38;13.15;;;;;;;;;;2082140;28;20671;-53
2021/09/19 02:04:46;;;;;;;14.00;12.85;;;;;;;;;;2082111;28;20206;-55
2021/09/19 02:05:47;;;;;;;14.23;13.02;;;;;;;;;;2082060;28;20641;-57
2021/09/19 02:06:47;;;;;;;14.27;12.98;;;;;;;;;;2090800;28;20699;-55
2021/09/19 02:07:47;;;;;;;14.90;13.60;;;;;;;;;;2090574;28;20378;-56
2021/09/19 02:08:48;;;;;;;13.63;12.48;;;;;;;;;;2101149;22;20545;-55
2021/09/19 02:09:49;;;;;;;13.35;12.27;;;;;;;;;;2089149;28;20435;-62
2021/09/19 02:10:49;;;;;;;14.32;13.13;;;;;;;;;;2100495;28;20175;-56
2021/09/19 02:11:49;;;;;;;14.18;12.85;;;;;;;;;;2090817;28;20207;-55
2021/09/19 02:12:49;;;;;;;14.85;13.63;;;;;;;;;;2091297;28;20180;-57
2021/09/19 02:13:50;;;;;;;14.43;12.95;;;;;;;;;;2092451;28;20257;-60
2021/09/19 02:14:50;;;;;;;12.20;11.20;;;;;;;;;;2084953;28;20317;-62
2021/09/19 02:15:50;;;;;;;13.82;12.57;;;;;;;;;;2089735;28;20184;-60
2021/09/19 02:16:51;;;;;;;12.77;11.82;;;;;;;;;;2098296;28;20169;-62
2021/09/19 02:17:51;;;;;;;14.73;13.40;;;;;;;;;;2096449;28;20718;-60
2021/09/19 02:18:51;;;;;;;13.10;12.00;;;;;;;;;;2097444;28;20206;-62
2021/09/19 02:19:51;;;;;;;13.07;11.77;;;;;;;;;;2099735;28;20189;-64
2021/09/19 02:20:52;;;;;;;12.65;11.65;;;;;;;;;;2098172;28;20167;-58
2021/09/19 02:21:52;;;;;;;12.80;11.70;;;;;;;;;;2098203;28;20175;-56
2021/09/19 02:22:53;;;;;;;12.95;11.75;;;;;;;;;;2091476;28;20167;-61
2021/09/19 02:23:53;;;;;;;12.18;11.00;;;;;;;;;;2093713;28;20201;-58
2021/09/19 02:24:54;;;;;;;11.65;10.65;;;;;;;;;;2098121;28;20171;-58
2021/09/19 02:25:54;;;;;;;12.73;11.55;;;;;;;;;;2097971;28;20175;-59
2021/09/19 02:26:54;;;;;;;12.85;11.65;;;;;;;;;;2093538;28;20543;-56
2021/09/19 02:27:54;;;;;;;13.32;12.18;;;;;;;;;;2097643;28;20213;-59
2021/09/19 02:28:55;;;;;;;12.60;11.52;;;;;;;;;;2097721;28;20228;-58
2021/09/19 02:29:55;;;;;;;12.57;11.40;;;;;;;;;;2098300;28;20653;-58
2021/09/19 02:30:55;;;;;;;12.10;11.10;;;;;;;;;;2096903;28;20635;-60
2021/09/19 02:31:55;;;;;;;12.45;11.23;;;;;;;;;;2098151;28;20183;-57
2021/09/19 02:32:56;;;;;;;12.48;11.32;;;;;;;;;;2097422;28;20167;-60
2021/09/19 02:33:56;;;;;;;12.77;11.68;;;;;;;;;;2099091;28;20174;-58
2021/09/19 02:34:56;;;;;;;12.93;11.80;;;;;;;;;;2097499;28;20200;-60
2021/09/19 02:35:57;;;;;;;12.48;11.48;;;;;;;;;;2098905;28;20202;-58
2021/09/19 02:36:57;;;;;;;12.55;11.45;;;;;;;;;;2089805;28;20168;-59
2021/09/19 02:37:57;;;;;;;12.73;11.63;;;;;;;;;;2088891;28;20196;-58
2021/09/19 02:38:57;;;;;;;12.05;10.95;;;;;;;;;;2097991;28;20205;-62
2021/09/19 02:39:58;;;;;;;11.10;10.15;;;;;;;;;;2096078;28;20200;-59
2021/09/19 02:40:58;;;;;;;12.70;11.63;;;;;;;;;;2098792;28;20213;-58
2021/09/19 02:41:58;;;;;;;12.20;11.23;;;;;;;;;;2098007;28;20256;-61
2021/09/19 02:42:59;;;;;;;11.93;10.93;;;;;;;;;;2095527;28;20181;-61
2021/09/19 02:43:59;;;;;;;12.88;11.85;;;;;;;;;;2084879;28;20171;-60
2021/09/19 02:45:02;;;;;;;12.82;11.73;;;;;;;;;;2089225;28;20648;-59
2021/09/19 02:46:02;;;;;;;12.80;11.65;;;;;;;;;;2098711;28;20181;-62
2021/09/19 02:47:02;;;;;;;12.43;11.27;;;;;;;;;;2097878;28;20202;-60
2021/09/19 02:48:03;;;;;;;11.63;10.57;;;;;;;;;;2096995;28;20163;-59
2021/09/19 02:49:03;;;;;;;11.95;10.85;;;;;;;;;;2086253;28;20282;-60
2021/09/19 02:50:05;;;;;;;11.45;10.52;;;;;;;;;;2088786;28;20172;-60
2021/09/19 02:51:05;;;;;;;12.40;11.40;;;;;;;;;;2088951;28;20740;-60
2021/09/19 02:52:05;;;;;;;12.18;10.90;;;;;;;;;;2089136;28;20183;-60
2021/09/19 02:53:05;;;;;;;11.38;10.48;;;;;;;;;;2096045;28;20202;-61
2021/09/19 02:54:06;;;;;;;11.85;10.70;;;;;;;;;;2097902;28;20179;-62
2021/09/19 02:55:07;;;;;;;11.70;10.80;;;;;;;;;;2095678;28;20175;-58
2021/09/19 02:56:07;;;;;;;11.38;10.38;;;;;;;;;;2097910;28;20210;-58
2021/09/19 02:57:07;;;;;;;11.60;10.70;;;;;;;;;;2094707;28;20172;-58
2021/09/19 02:58:07;;;;;;;11.90;10.93;;;;;;;;;;2096299;28;20158;-61
2021/09/19 02:59:08;;;;;;;11.70;10.68;;;;;;;;;;2097702;28;20199;-57
2021/09/19 03:00:10;;;;;;;11.98;10.95;;;;;;;;;;2095017;28;20179;-61
2021/09/19 03:01:10;;;;;;;11.52;10.73;;;;;;;;;;2088165;28;20168;-59
2021/09/19 03:02:10;;;;;;;11.10;10.20;;;;;;;;;;2089388;28;20255;-59
2021/09/19 03:03:10;;;;;;;11.98;10.88;;;;;;;;;;2097305;28;20261;-59
2021/09/19 03:04:11;;;;;;;11.82;10.82;;;;;;;;;;2097778;28;20175;-55
2021/09/19 03:05:11;;;;;;;11.18;10.07;;;;;;;;;;2095869;28;20185;-60
2021/09/19 03:06:11;;;;;;;12.27;10.18;;;;;;;;;;2095262;28;20202;-58
2021/09/19 03:07:12;;;;;;;13.98;9.98;;;;;;;;;;2095880;28;20159;-58
2021/09/19 03:08:12;;;;;;;11.18;10.10;;;;;;;;;;2095033;28;20179;-62
2021/09/19 03:09:12;;;;;;;11.65;10.65;;;;;;;;;;2095373;28;20221;-62
2021/09/19 03:10:14;;;;;;;12.00;10.88;;;;;;;;;;2086575;28;20174;-60
2021/09/19 03:11:14;;;;;;;10.90;10.10;;;;;;;;;;2086305;28;20225;-58
2021/09/19 03:12:14;;;;;;;10.75;9.95;;;;;;;;;;2095544;28;20167;-61
2021/09/19 03:13:14;;;;;;;10.85;9.95;;;;;;;;;;2088619;28;20266;-60
2021/09/19 03:14:14;;;;;;;11.43;10.35;;;;;;;;;;2080330;28;20214;-62
2021/09/19 03:15:15;;;;;;;11.40;10.35;;;;;;;;;;2088631;28;20270;-59
2021/09/19 03:16:15;;;;;;;10.30;9.50;;;;;;;;;;2094149;28;20179;-59
2021/09/19 03:17:15;;;;;;;11.05;10.05;;;;;;;;;;2093549;28;20178;-60
2021/09/19 03:18:15;;;;;;;10.73;9.93;;;;;;;;;;2091576;28;20725;-57
2021/09/19 03:19:16;;;;;;;10.13;9.23;;;;;;;;;;2092182;28;20187;-60
2021/09/19 03:20:16;;;;;;;10.65;9.75;;;;;;;;;;2086727;28;20172;-59
2021/09/19 03:21:17;;;;;;;11.13;10.00;;;;;;;;;;2083218;28;20164;-60
2021/09/19 03:22:17;;;;;;;9.68;8.88;;;;;;;;;;2093311;28;20245;-59
2021/09/19 03:23:17;;;;;;;10.68;9.88;;;;;;;;;;2096375;28;20183;-59
2021/09/19 03:24:17;;;;;;;11.52;10.50;;;;;;;;;;2081073;28;20657;-59
2021/09/19 03:25:18;;;;;;;10.48;9.50;;;;;;;;;;2080994;28;20184;-60
2021/09/19 03:26:18;;;;;;;11.23;10.40;;;;;;;;;;2087943;28;20180;-58
2021/09/19 03:27:18;;;;;;;10.93;9.85;;;;;;;;;;2080789;28;20176;-57
2021/09/19 03:28:19;;;;;;;11.13;10.13;;;;;;;;;;2088444;28;20219;-58
2021/09/19 03:29:20;;;;;;;10.63;9.82;;;;;;;;;;2097652;28;20214;-60
2021/09/19 03:30:20;;;;;;;11.25;9.90;;;;;;;;;;2097238;28;20180;-60
2021/09/19 03:31:20;;;;;;;10.35;9.35;;;;;;;;;;2097860;28;20223;-55
2021/09/19 03:32:21;;;;;;;10.95;9.95;;;;;;;;;;2097681;28;20220;-53
2021/09/19 03:33:21;;;;;;;10.35;9.40;;;;;;;;;;2088974;28;20210;-57
2021/09/19 03:34:21;;;;;;;10.90;9.95;;;;;;;;;;2088565;28;20184;-59
2021/09/19 03:35:21;;;;;;;9.73;8.93;;;;;;;;;;2097228;28;20167;-60
2021/09/19 03:36:22;;;;;;;10.20;9.40;;;;;;;;;;2098440;28;20162;-60
2021/09/19 03:37:22;;;;;;;10.35;9.35;;;;;;;;;;2097679;28;20691;-60
2021/09/19 03:38:22;;;;;;;11.02;10.05;;;;;;;;;;2097725;28;20184;-60
2021/09/19 03:39:23;;;;;;;9.88;9.07;;;;;;;;;;2098306;28;20271;-58
2021/09/19 03:40:23;;;;;;;9.57;8.68;;;;;;;;;;2089017;28;20172;-54
2021/09/19 03:41:23;;;;;;;9.65;8.77;;;;;;;;;;2081690;28;20211;-58
2021/09/19 03:42:24;;;;;;;10.00;9.20;;;;;;;;;;2089824;28;20187;-58
2021/09/19 03:43:24;;;;;;;10.95;10.05;;;;;;;;;;2098664;28;20646;-61
2021/09/19 03:44:24;;;;;;;10.45;9.55;;;;;;;;;;2098279;28;20193;-61
2021/09/19 03:45:28;;;;;;;10.18;9.27;;;;;;;;;;2089506;28;20250;-59
2021/09/19 03:46:29;;;;;;;10.07;9.07;;;;;;;;;;2089963;28;20186;-56
2021/09/19 03:47:29;;;;;;;9.57;8.65;;;;;;;;;;2098597;28;20173;-58
2021/09/19 03:48:29;;;;;;;10.95;10.05;;;;;;;;;;2097978;28;20178;-60
2021/09/19 03:49:31;;;;;;;10.45;9.55;;;;;;;;;;2098594;28;20171;-61
2021/09/19 03:50:31;;;;;;;11.35;10.35;;;;;;;;;;2098308;28;20540;-62
2021/09/19 03:51:32;;;;;;;10.00;9.18;;;;;;;;;;2098774;28;20179;-59
2021/09/19 03:52:32;;;;;;;10.15;9.25;;;;;;;;;;2098522;28;20186;-61
2021/09/19 03:53:32;;;;;;;11.32;9.30;;;;;;;;;;2098449;28;20194;-58
2021/09/19 03:54:33;;;;;;;10.23;9.38;;;;;;;;;;2098104;28;20261;-62
2021/09/19 03:55:33;;;;;;;9.73;9.00;;;;;;;;;;2098664;28;20587;-61
2021/09/19 03:56:33;;;;;;;9.65;8.85;;;;;;;;;;2087983;28;20691;-54
2021/09/19 03:57:33;;;;;;;10.57;9.40;;;;;;;;;;2088688;28;20184;-59
2021/09/19 03:58:34;;;;;;;9.93;9.00;;;;;;;;;;2097497;28;20171;-58
2021/09/19 03:59:34;;;;;;;10.93;9.30;;;;;;;;;;2097852;28;20175;-55
2021/09/19 04:00:34;;;;;;;10.00;9.13;;;;;;;;;;2095803;28;20634;-58
2021/09/19 04:01:35;;;;;;;10.20;9.20;;;;;;;;;;2097563;28;20167;-60
2021/09/19 04:02:35;;;;;;;10.05;9.23;;;;;;;;;;2097684;28;20165;-59
2021/09/19 04:03:35;;;;;;;10.15;9.15;;;;;;;;;;2095141;28;20176;-58
2021/09/19 04:04:35;;;;;;;10.00;9.00;;;;;;;;;;2097400;28;20708;-64
2021/09/19 04:05:36;;;;;;;10.65;9.60;;;;;;;;;;2094391;28;20182;-62
2021/09/19 04:06:37;;;;;;;10.23;9.35;;;;;;;;;;2097782;28;20542;-61
2021/09/19 04:07:37;;;;;;;10.68;9.00;;;;;;;;;;2093358;28;20267;-59
2021/09/19 04:08:37;;;;;;;9.95;9.07;;;;;;;;;;2097287;28;20163;-63
2021/09/19 04:09:38;;;;;;;9.95;8.93;;;;;;;;;;2097261;28;20183;-60
2021/09/19 04:10:38;;;;;;;10.70;9.70;;;;;;;;;;2088937;28;20180;-62
2021/09/19 04:11:38;;;;;;;9.85;8.95;;;;;;;;;;2088429;28;20734;-62
2021/09/19 04:12:39;;;;;;;9.10;8.27;;;;;;;;;;2098011;28;20232;-59
2021/09/19 04:13:39;;;;;;;9.55;8.65;;;;;;;;;;2095710;28;20186;-60
2021/09/19 04:14:40;;;;;;;9.85;8.75;;;;;;;;;;2097949;28;20649;-61
2021/09/19 04:15:41;;;;;;;10.35;9.43;;;;;;;;;;2097124;28;20189;-60
2021/09/19 04:16:41;;;;;;;10.05;9.23;;;;;;;;;;2097994;28;20225;-57
2021/09/19 04:17:42;;;;;;;9.57;8.70;;;;;;;;;;2091576;28;20171;-60
2021/09/19 04:18:42;;;;;;;9.85;8.85;;;;;;;;;;2096033;28;20693;-60
2021/09/19 04:19:42;;;;;;;10.80;9.23;;;;;;;;;;2091151;28;20183;-59
2021/09/19 04:20:43;;;;;;;10.50;9.30;;;;;;;;;;2095670;28;20167;-60
2021/09/19 04:21:43;;;;;;;10.48;9.43;;;;;;;;;;2091148;28;20160;-58
2021/09/19 04:22:43;;;;;;;10.50;8.95;;;;;;;;;;2095630;28;20179;-62
2021/09/19 04:23:44;;;;;;;9.52;8.73;;;;;;;;;;2097378;28;20654;-60
2021/09/19 04:24:44;;;;;;;9.45;8.65;;;;;;;;;;2097764;28;20162;-60
2021/09/19 04:25:45;;;;;;;9.73;8.75;;;;;;;;;;2094511;28;20195;-61
2021/09/19 04:26:45;;;;;;;9.23;8.27;;;;;;;;;;2091466;28;20175;-61
2021/09/19 04:27:45;;;;;;;9.95;8.45;;;;;;;;;;2097261;28;20210;-61
2021/09/19 04:28:45;;;;;;;9.73;8.82;;;;;;;;;;2097278;28;20183;-59
2021/09/19 04:29:46;;;;;;;9.80;8.90;;;;;;;;;;2088826;28;20168;-58
2021/09/19 04:30:46;;;;;;;10.57;9.52;;;;;;;;;;2089515;28;20179;-57
2021/09/19 04:31:46;;;;;;;10.10;9.05;;;;;;;;;;2092118;28;20266;-55
2021/09/19 04:32:46;;;;;;;10.60;9.60;;;;;;;;;;2098559;28;20171;-58
2021/09/19 04:33:47;;;;;;;9.85;8.98;;;;;;;;;;2097036;28;20215;-57
2021/09/19 04:34:47;;;;;;;9.70;8.90;;;;;;;;;;2097792;28;20182;-60
2021/09/19 04:35:47;;;;;;;10.00;8.95;;;;;;;;;;2095704;28;20642;-65
2021/09/19 04:36:47;;;;;;;9.40;8.60;;;;;;;;;;2088933;28;20195;-63
2021/09/19 04:37:47;;;;;;;10.27;9.38;;;;;;;;;;2080473;28;20172;-62
2021/09/19 04:38:48;;;;;;;10.60;8.93;;;;;;;;;;2088209;28;20239;-60
2021/09/19 04:39:48;;;;;;;9.27;8.57;;;;;;;;;;2096271;28;20202;-58
2021/09/19 04:40:48;;;;;;;9.10;8.40;;;;;;;;;;2081843;28;20176;-64
2021/09/19 04:41:49;;;;;;;9.32;8.52;;;;;;;;;;2083444;28;20305;-62
2021/09/19 04:42:49;;;;;;;10.18;9.18;;;;;;;;;;2101144;28;20227;-64
2021/09/19 04:43:49;;;;;;;9.55;8.55;;;;;;;;;;2100517;28;20208;-65
2021/09/19 04:44:50;;;;;;;9.85;8.90;;;;;;;;;;2092607;28;20248;-61
2021/09/19 04:45:50;;;;;;;10.63;9.73;;;;;;;;;;2090380;28;20187;-59
2021/09/19 04:46:50;;;;;;;10.35;9.15;;;;;;;;;;2097331;28;20175;-63
2021/09/19 04:47:50;;;;;;;9.98;9.07;;;;;;;;;;2093311;28;20174;-60
2021/09/19 04:48:54;;;;;;;9.57;8.65;;;;;;;;;;2093380;28;20675;-58
2021/09/19 04:49:54;;;;;;;10.48;9.48;;;;;;;;;;2093774;28;20247;-60
2021/09/19 04:50:54;;;;;;;9.75;8.88;;;;;;;;;;2088542;28;20184;-60
2021/09/19 04:51:54;;;;;;;9.85;8.95;;;;;;;;;;2088795;28;20236;-63
2021/09/19 04:52:55;;;;;;;10.95;10.05;;;;;;;;;;2096612;28;20197;-63
2021/09/19 04:53:55;;;;;;;10.93;9.68;;;;;;;;;;2089329;28;20714;-62
2021/09/19 04:54:55;;;;;;;11.18;10.05;;;;;;;;;;2080259;28;20192;-59
2021/09/19 04:55:55;;;;;;;11.95;9.75;;;;;;;;;;2084676;28;20191;-62
2021/09/19 04:56:56;;;;;;;11.43;9.48;;;;;;;;;;2095850;28;20167;-61
2021/09/19 04:57:56;;;;;;;11.32;10.18;;;;;;;;;;2093557;28;20163;-58
2021/09/19 04:58:56;;;;;;;11.27;10.15;;;;;;;;;;2094656;28;20637;-60
2021/09/19 04:59:56;;;;;;;10.63;9.35;;;;;;;;;;2084492;28;20601;-59
2021/09/19 05:00:57;;;;;;;10.68;9.75;;;;;;;;;;2088416;28;20246;-62
2021/09/19 05:01:57;;;;;;;13.85;10.20;;;;;;;;;;2097450;28;20175;-61
2021/09/19 05:02:57;;;;;;;11.65;10.43;;;;;;;;;;2089000;28;20198;-60
2021/09/19 05:03:57;;;;;;;11.13;10.13;;;;;;;;;;2088076;28;20626;-63
2021/09/19 05:04:58;;;;;;;11.70;10.52;;;;;;;;;;2097819;28;20179;-62
2021/09/19 05:05:58;;;;;;;16.10;14.50;;;;;;;;;;2097625;28;20170;-61
2021/09/19 05:06:58;;;;;;;13.90;12.70;;;;;;;;;;2089466;28;20621;-59
2021/09/19 05:07:58;;;;;;;13.27;11.57;;;;;;;;;;2088789;28;20207;-62
2021/09/19 05:08:59;;;;;;;13.43;10.75;;;;;;;;;;2098262;28;20202;-61
2021/09/19 05:09:59;;;;;;;14.68;13.38;;;;;;;;;;2088758;28;20220;-62
2021/09/19 05:11:01;;;;;;;12.23;11.07;;;;;;;;;;2080983;28;20168;-59
2021/09/19 05:12:01;;;;;;;12.18;10.98;;;;;;;;;;2081023;28;20564;-60
2021/09/19 05:13:02;;;;;;;10.57;9.63;;;;;;;;;;2089261;28;20179;-59
2021/09/19 05:14:02;;;;;;;14.85;12.25;;;;;;;;;;2095032;28;20517;-59
2021/09/19 05:15:03;;;;;;;16.23;11.10;;;;;;;;;;2097568;28;20633;-57
2021/09/19 05:16:03;;;;;;;12.05;10.95;;;;;;;;;;2094620;28;20175;-60
2021/09/19 05:17:03;;;;;;;12.23;11.02;;;;;;;;;;2098250;28;20166;-60
2021/09/19 05:18:05;;;;;;;13.75;12.35;;;;;;;;;;2097631;28;20190;-60
2021/09/19 05:19:05;;;;;;;12.10;11.00;;;;;;;;;;2089299;28;20187;-60
2021/09/19 05:20:06;;;;;;;14.60;12.88;;;;;;;;;;2088971;28;20546;-62
2021/09/19 05:21:06;;;;;;;12.45;11.10;;;;;;;;;;2098190;28;20265;-60
2021/09/19 05:22:06;;;;;;;12.82;10.85;;;;;;;;;;2097944;28;20166;-59
2021/09/19 05:23:06;;;;;;;14.18;12.48;;;;;;;;;;2096199;28;20186;-61
2021/09/19 05:24:07;;;;;;;11.52;10.48;;;;;;;;;;2097465;28;20194;-61
2021/09/19 05:25:07;;;;;;;12.75;11.45;;;;;;;;;;2099216;28;20159;-59
2021/09/19 05:26:07;;;;;;;12.35;11.25;;;;;;;;;;2097487;28;20239;-61
2021/09/19 05:27:07;;;;;;;11.60;10.25;;;;;;;;;;2099251;28;20190;-64
2021/09/19 05:28:08;;;;;;;11.13;10.07;;;;;;;;;;2089351;28;20251;-61
2021/09/19 05:29:08;;;;;;;12.70;10.35;;;;;;;;;;2090093;28;20223;-62
2021/09/19 05:30:09;;;;;;;11.50;10.35;;;;;;;;;;2097250;28;20254;-56
2021/09/19 05:31:09;;;;;;;13.27;11.98;;;;;;;;;;2099161;28;20177;-58
2021/09/19 05:32:09;;;;;;;12.00;10.95;;;;;;;;;;2099083;28;20297;-61
2021/09/19 05:33:10;;;;;;;11.60;10.60;;;;;;;;;;2099090;28;20179;-59
2021/09/19 05:34:10;;;;;;;10.95;9.90;;;;;;;;;;2098422;28;20658;-57
2021/09/19 05:35:11;;;;;;;13.82;12.35;;;;;;;;;;2098946;28;20213;-60
2021/09/19 05:36:11;;;;;;;12.35;11.15;;;;;;;;;;2097090;28;20179;-63
2021/09/19 05:37:11;;;;;;;13.38;10.85;;;;;;;;;;2098402;28;20206;-62
2021/09/19 05:38:12;;;;;;;12.35;11.20;;;;;;;;;;2096185;28;20253;-63
2021/09/19 05:39:12;;;;;;;12.35;11.10;;;;;;;;;;2098555;28;20691;-56
2021/09/19 05:40:14;;;;;;;11.48;10.48;;;;;;;;;;2099529;28;20171;-64
2021/09/19 05:41:14;;;;;;;11.35;10.35;;;;;;;;;;2099488;28;20167;-61
2021/09/19 05:42:14;;;;;;;11.40;10.20;;;;;;;;;;2099002;28;20713;-60
2021/09/19 05:43:15;;;;;;;11.52;10.43;;;;;;;;;;2097120;28;20202;-60
2021/09/19 05:44:15;;;;;;;11.32;9.85;;;;;;;;;;2097631;28;20543;-60
2021/09/19 05:45:15;;;;;;;10.43;9.43;;;;;;;;;;2099322;28;20175;-64
2021/09/19 05:46:17;;;;;;;11.10;10.15;;;;;;;;;;2095563;28;20168;-64
2021/09/19 05:47:17;;;;;;;11.32;9.85;;;;;;;;;;2097173;28;20179;-61
2021/09/19 05:48:18;;;;;;;12.05;10.75;;;;;;;;;;2098737;28;20557;-62
2021/09/19 05:49:18;;;;;;;10.57;9.38;;;;;;;;;;2095230;28;20189;-61
2021/09/19 05:50:18;;;;;;;11.05;9.73;;;;;;;;;;2097466;28;20198;-57
2021/09/19 05:51:21;;;;;;;10.35;9.35;;;;;;;;;;2098670;28;20171;-58
2021/09/19 05:52:21;;;;;;;11.75;10.55;;;;;;;;;;2090102;28;20168;-57
2021/09/19 05:53:22;;;;;;;11.80;10.63;;;;;;;;;;2081036;28;20281;-60
2021/09/19 05:54:22;;;;;;;11.27;10.27;;;;;;;;;;2073551;28;20177;-62
2021/09/19 05:55:23;;;;;;;11.80;10.45;;;;;;;;;;2082131;28;20549;-62
2021/09/19 05:56:23;;;;;;;10.40;9.27;;;;;;;;;;2099754;28;20175;-63